sensor_id;sensor_type;location;lat;lon;timestamp;pressure;altitude;pressure_sealevel;temperature;humidity
3544;BME280;1786;52.870;9.578;2023-01-05T00:01:01;99927.34;;;18.59;60.09
3544;BME280;1786;52.870;9.578;2023-01-05T00:03:28;99920.50;;;18.65;60.44
3544;BME280;1786;52.870;9.578;2023-01-05T00:06:02;99929.41;;;18.90;60.12
3544;BME280;1786;52.870;9.578;2023-01-05T00:08:29;99935.28;;;18.77;60.56
3544;BME280;1786;52.870;9.578;2023-01-05T00:11:04;99931.41;;;18.88;60.02
3544;BME280;1786;52.870;9.578;2023-01-05T00:13:52;99941.44;;;18.78;59.85
3544;BME280;1786;52.870;9.578;2023-01-05T00:16:37;99945.28;;;19.33;58.96
3544;BME280;1786;52.870;9.578;2023-01-05T00:19:22;99942.78;;;18.98;60.10
3544;BME280;1786;52.870;9.578;2023-01-05T00:22:16;99942.47;;;18.93;59.72
3544;BME280;1786;52.870;9.578;2023-01-05T00:24:57;99939.19;;;18.57;60.97
3544;BME280;1786;52.870;9.578;2023-01-05T00:27:25;99933.69;;;18.50;61.12
3544;BME280;1786;52.870;9.578;2023-01-05T00:29:52;99935.53;;;17.99;62.63
3544;BME280;1786;52.870;9.578;2023-01-05T00:32:19;99934.72;;;18.74;60.95
3544;BME280;1786;52.870;9.578;2023-01-05T00:34:46;99940.94;;;18.91;60.37
3544;BME280;1786;52.870;9.578;2023-01-05T00:37:12;99940.38;;;18.54;61.08
3544;BME280;1786;52.870;9.578;2023-01-05T00:39:39;99942.84;;;17.89;62.64
3544;BME280;1786;52.870;9.578;2023-01-05T00:42:05;99944.41;;;18.67;61.16
3544;BME280;1786;52.870;9.578;2023-01-05T00:44:32;99945.72;;;18.54;61.42
3544;BME280;1786;52.870;9.578;2023-01-05T00:46:59;99941.09;;;19.14;60.00
3544;BME280;1786;52.870;9.578;2023-01-05T00:49:25;99942.47;;;18.85;60.79
3544;BME280;1786;52.870;9.578;2023-01-05T00:51:52;99940.06;;;18.57;62.64
3544;BME280;1786;52.870;9.578;2023-01-05T00:54:19;99950.38;;;18.36;63.36
3544;BME280;1786;52.870;9.578;2023-01-05T00:56:46;99956.94;;;18.74;62.85
3544;BME280;1786;52.870;9.578;2023-01-05T00:59:15;99965.53;;;18.78;62.81
3544;BME280;1786;52.870;9.578;2023-01-05T01:01:50;99965.53;;;19.27;61.72
3544;BME280;1786;52.870;9.578;2023-01-05T01:04:18;99964.38;;;19.21;61.46
3544;BME280;1786;52.870;9.578;2023-01-05T01:06:45;99958.84;;;19.15;61.33
3544;BME280;1786;52.870;9.578;2023-01-05T01:09:13;99952.66;;;19.14;61.69
3544;BME280;1786;52.870;9.578;2023-01-05T01:11:39;99964.16;;;19.48;61.27
3544;BME280;1786;52.870;9.578;2023-01-05T01:14:06;99970.53;;;18.73;63.07
3544;BME280;1786;52.870;9.578;2023-01-05T01:16:33;99958.34;;;18.78;63.46
3544;BME280;1786;52.870;9.578;2023-01-05T01:19:00;99959.81;;;18.73;63.36
3544;BME280;1786;52.870;9.578;2023-01-05T01:21:31;99962.50;;;18.73;63.67
3544;BME280;1786;52.870;9.578;2023-01-05T01:23:57;99966.91;;;18.90;62.85
3544;BME280;1786;52.870;9.578;2023-01-05T01:26:24;99978.09;;;18.94;63.21
3544;BME280;1786;52.870;9.578;2023-01-05T01:28:50;99978.56;;;19.46;61.86
3544;BME280;1786;52.870;9.578;2023-01-05T01:31:17;99977.00;;;19.85;60.59
3544;BME280;1786;52.870;9.578;2023-01-05T01:33:44;99972.72;;;20.15;60.12
3544;BME280;1786;52.870;9.578;2023-01-05T01:36:11;99980.41;;;19.79;60.46
3544;BME280;1786;52.870;9.578;2023-01-05T01:38:38;99979.91;;;19.67;61.28
3544;BME280;1786;52.870;9.578;2023-01-05T01:41:05;99998.16;;;19.63;61.42
3544;BME280;1786;52.870;9.578;2023-01-05T01:43:52;99999.69;;;19.33;62.10
3544;BME280;1786;52.870;9.578;2023-01-05T01:46:22;99998.69;;;19.26;62.19
3544;BME280;1786;52.870;9.578;2023-01-05T01:48:58;100009.06;;;19.29;61.35
3544;BME280;1786;52.870;9.578;2023-01-05T01:51:35;100006.53;;;18.95;62.76
3544;BME280;1786;52.870;9.578;2023-01-05T01:54:07;100003.84;;;18.87;62.70
3544;BME280;1786;52.870;9.578;2023-01-05T01:56:39;100004.16;;;18.25;64.38
3544;BME280;1786;52.870;9.578;2023-01-05T01:59:08;100010.38;;;18.84;63.23
3544;BME280;1786;52.870;9.578;2023-01-05T02:01:35;100003.25;;;18.50;63.90
3544;BME280;1786;52.870;9.578;2023-01-05T02:04:02;100015.56;;;18.35;64.10
3544;BME280;1786;52.870;9.578;2023-01-05T02:06:30;100003.38;;;18.32;64.15
3544;BME280;1786;52.870;9.578;2023-01-05T02:08:57;100002.91;;;18.45;63.75
3544;BME280;1786;52.870;9.578;2023-01-05T02:14:21;99995.00;;;18.86;62.57
3544;BME280;1786;52.870;9.578;2023-01-05T02:28:23;100003.75;;;18.54;63.41
3544;BME280;1786;52.870;9.578;2023-01-05T02:31:21;100010.38;;;18.84;61.85
3544;BME280;1786;52.870;9.578;2023-01-05T02:34:06;100016.84;;;18.23;63.44
3544;BME280;1786;52.870;9.578;2023-01-05T02:36:52;100014.97;;;18.57;62.56
3544;BME280;1786;52.870;9.578;2023-01-05T02:39:27;100013.03;;;18.76;62.11
3544;BME280;1786;52.870;9.578;2023-01-05T02:42:04;100001.69;;;19.31;61.32
3544;BME280;1786;52.870;9.578;2023-01-05T02:44:34;100013.22;;;18.83;62.11
3544;BME280;1786;52.870;9.578;2023-01-05T02:47:06;100009.56;;;18.41;62.81
3544;BME280;1786;52.870;9.578;2023-01-05T02:49:37;100013.97;;;18.67;62.41
3544;BME280;1786;52.870;9.578;2023-01-05T02:52:07;100005.56;;;18.45;63.17
3544;BME280;1786;52.870;9.578;2023-01-05T02:54:46;100013.81;;;18.60;62.61
3544;BME280;1786;52.870;9.578;2023-01-05T02:57:19;100009.19;;;17.93;64.41
3544;BME280;1786;52.870;9.578;2023-01-05T03:00:08;100006.03;;;18.83;62.91
3544;BME280;1786;52.870;9.578;2023-01-05T03:02:38;100014.75;;;18.34;63.96
3544;BME280;1786;52.870;9.578;2023-01-05T03:05:09;100018.81;;;18.12;64.38
3544;BME280;1786;52.870;9.578;2023-01-05T03:07:40;100010.53;;;18.32;64.00
3544;BME280;1786;52.870;9.578;2023-01-05T03:10:12;100021.88;;;18.26;64.04
3544;BME280;1786;52.870;9.578;2023-01-05T03:13:04;100023.47;;;19.03;62.18
3544;BME280;1786;52.870;9.578;2023-01-05T03:15:51;100017.56;;;18.75;62.87
3544;BME280;1786;52.870;9.578;2023-01-05T03:18:25;100021.06;;;18.76;62.87
3544;BME280;1786;52.870;9.578;2023-01-05T03:20:53;100028.94;;;18.35;63.92
3544;BME280;1786;52.870;9.578;2023-01-05T03:23:20;100024.06;;;18.73;63.09
3544;BME280;1786;52.870;9.578;2023-01-05T03:26:09;100019.66;;;18.55;63.28
3544;BME280;1786;52.870;9.578;2023-01-05T03:28:59;100035.84;;;18.54;63.75
3544;BME280;1786;52.870;9.578;2023-01-05T03:32:15;100029.53;;;18.63;63.64
3544;BME280;1786;52.870;9.578;2023-01-05T03:35:09;100030.50;;;18.54;63.60
3544;BME280;1786;52.870;9.578;2023-01-05T03:41:02;100046.19;;;18.41;63.97
3544;BME280;1786;52.870;9.578;2023-01-05T03:43:33;100044.00;;;18.87;63.16
3544;BME280;1786;52.870;9.578;2023-01-05T03:46:14;100036.66;;;18.38;63.74
3544;BME280;1786;52.870;9.578;2023-01-05T03:48:42;100039.59;;;18.27;64.08
3544;BME280;1786;52.870;9.578;2023-01-05T03:51:09;100041.91;;;18.64;63.64
3544;BME280;1786;52.870;9.578;2023-01-05T03:53:38;100043.47;;;18.75;63.43
3544;BME280;1786;52.870;9.578;2023-01-05T03:56:06;100040.28;;;18.29;63.98
3544;BME280;1786;52.870;9.578;2023-01-05T03:58:33;100037.53;;;18.12;64.13
3544;BME280;1786;52.870;9.578;2023-01-05T04:01:01;100047.84;;;18.84;62.54
3544;BME280;1786;52.870;9.578;2023-01-05T04:03:28;100050.28;;;18.27;63.49
3544;BME280;1786;52.870;9.578;2023-01-05T04:06:01;100054.88;;;18.08;64.12
3544;BME280;1786;52.870;9.578;2023-01-05T04:08:30;100062.59;;;18.11;64.16
3544;BME280;1786;52.870;9.578;2023-01-05T04:11:12;100065.63;;;18.16;64.18
3544;BME280;1786;52.870;9.578;2023-01-05T04:13:40;100070.81;;;18.52;62.89
3544;BME280;1786;52.870;9.578;2023-01-05T04:16:07;100070.19;;;17.98;63.70
3544;BME280;1786;52.870;9.578;2023-01-05T04:18:36;100055.09;;;18.15;63.21
3544;BME280;1786;52.870;9.578;2023-01-05T04:21:04;100063.25;;;18.13;62.81
3544;BME280;1786;52.870;9.578;2023-01-05T04:23:32;100067.94;;;18.11;63.13
3544;BME280;1786;52.870;9.578;2023-01-05T04:25:59;100078.94;;;18.08;62.83
3544;BME280;1786;52.870;9.578;2023-01-05T04:28:26;100078.97;;;17.64;64.32
3544;BME280;1786;52.870;9.578;2023-01-05T04:30:55;100081.47;;;17.84;63.95
3544;BME280;1786;52.870;9.578;2023-01-05T04:33:24;100087.06;;;17.99;63.28
3544;BME280;1786;52.870;9.578;2023-01-05T04:35:53;100082.31;;;17.84;63.71
3544;BME280;1786;52.870;9.578;2023-01-05T04:38:23;100091.34;;;18.09;62.63
3544;BME280;1786;52.870;9.578;2023-01-05T04:40:51;100085.31;;;18.07;62.79
3544;BME280;1786;52.870;9.578;2023-01-05T04:43:21;100072.38;;;17.59;63.59
3544;BME280;1786;52.870;9.578;2023-01-05T04:45:48;100094.75;;;17.76;62.64
3544;BME280;1786;52.870;9.578;2023-01-05T04:48:16;100086.03;;;17.29;64.48
3544;BME280;1786;52.870;9.578;2023-01-05T04:50:43;100095.69;;;17.48;63.91
3544;BME280;1786;52.870;9.578;2023-01-05T04:53:10;100093.94;;;17.57;63.63
3544;BME280;1786;52.870;9.578;2023-01-05T04:55:39;100109.28;;;17.99;62.34
3544;BME280;1786;52.870;9.578;2023-01-05T04:58:07;100105.50;;;17.84;62.98
3544;BME280;1786;52.870;9.578;2023-01-05T05:00:38;100103.41;;;17.34;64.09
3544;BME280;1786;52.870;9.578;2023-01-05T05:03:06;100098.50;;;17.83;62.85
3544;BME280;1786;52.870;9.578;2023-01-05T05:05:33;100105.97;;;18.31;61.44
3544;BME280;1786;52.870;9.578;2023-01-05T05:08:01;100110.50;;;18.31;61.07
3544;BME280;1786;52.870;9.578;2023-01-05T05:10:28;100118.91;;;18.44;60.70
3544;BME280;1786;52.870;9.578;2023-01-05T05:12:55;100121.13;;;18.14;61.67
3544;BME280;1786;52.870;9.578;2023-01-05T05:15:22;100110.31;;;18.67;60.32
3544;BME280;1786;52.870;9.578;2023-01-05T05:17:49;100123.34;;;18.62;60.23
3544;BME280;1786;52.870;9.578;2023-01-05T05:20:16;100128.81;;;18.78;60.32
3544;BME280;1786;52.870;9.578;2023-01-05T05:22:43;100137.63;;;18.70;60.39
3544;BME280;1786;52.870;9.578;2023-01-05T05:25:13;100138.13;;;18.13;62.18
3544;BME280;1786;52.870;9.578;2023-01-05T05:27:42;100141.91;;;18.03;62.62
3544;BME280;1786;52.870;9.578;2023-01-05T05:30:09;100155.50;;;18.09;62.75
3544;BME280;1786;52.870;9.578;2023-01-05T05:32:36;100138.97;;;18.14;63.22
3544;BME280;1786;52.870;9.578;2023-01-05T05:35:09;100152.97;;;18.60;61.90
3544;BME280;1786;52.870;9.578;2023-01-05T05:37:36;100155.22;;;18.47;62.09
3544;BME280;1786;52.870;9.578;2023-01-05T05:40:02;100154.59;;;18.53;61.87
3544;BME280;1786;52.870;9.578;2023-01-05T05:42:30;100161.69;;;19.05;60.90
3544;BME280;1786;52.870;9.578;2023-01-05T05:44:57;100157.75;;;19.33;60.54
3544;BME280;1786;52.870;9.578;2023-01-05T05:47:23;100163.34;;;18.63;61.23
3544;BME280;1786;52.870;9.578;2023-01-05T05:49:50;100163.19;;;18.38;62.13
3544;BME280;1786;52.870;9.578;2023-01-05T05:52:17;100164.59;;;18.77;61.10
3544;BME280;1786;52.870;9.578;2023-01-05T05:54:44;100180.16;;;18.47;62.04
3544;BME280;1786;52.870;9.578;2023-01-05T05:57:10;100187.50;;;18.45;62.27
3544;BME280;1786;52.870;9.578;2023-01-05T05:59:37;100196.94;;;18.84;61.29
3544;BME280;1786;52.870;9.578;2023-01-05T06:02:03;100190.25;;;18.88;61.16
3544;BME280;1786;52.870;9.578;2023-01-05T06:04:30;100197.50;;;18.43;62.70
3544;BME280;1786;52.870;9.578;2023-01-05T06:06:56;100198.59;;;18.58;61.94
3544;BME280;1786;52.870;9.578;2023-01-05T06:09:23;100205.03;;;18.74;61.79
3544;BME280;1786;52.870;9.578;2023-01-05T06:11:50;100206.00;;;18.91;60.75
3544;BME280;1786;52.870;9.578;2023-01-05T06:14:17;100213.13;;;19.24;60.64
3544;BME280;1786;52.870;9.578;2023-01-05T06:16:43;100215.16;;;18.80;61.13
3544;BME280;1786;52.870;9.578;2023-01-05T06:19:11;100218.34;;;18.57;61.74
3544;BME280;1786;52.870;9.578;2023-01-05T06:21:38;100212.66;;;18.60;61.12
3544;BME280;1786;52.870;9.578;2023-01-05T06:24:05;100223.72;;;18.92;60.80
3544;BME280;1786;52.870;9.578;2023-01-05T06:26:32;100216.13;;;18.53;61.66
3544;BME280;1786;52.870;9.578;2023-01-05T06:28:58;100223.56;;;18.93;60.93
3544;BME280;1786;52.870;9.578;2023-01-05T06:31:25;100226.00;;;18.52;61.43
3544;BME280;1786;52.870;9.578;2023-01-05T06:33:52;100232.81;;;18.99;61.10
3544;BME280;1786;52.870;9.578;2023-01-05T06:36:18;100235.91;;;19.20;60.41
3544;BME280;1786;52.870;9.578;2023-01-05T06:38:45;100237.22;;;18.56;61.66
3544;BME280;1786;52.870;9.578;2023-01-05T06:41:12;100244.50;;;18.46;62.31
3544;BME280;1786;52.870;9.578;2023-01-05T06:43:38;100240.13;;;18.19;62.48
3544;BME280;1786;52.870;9.578;2023-01-05T06:46:05;100254.19;;;18.21;62.90
3544;BME280;1786;52.870;9.578;2023-01-05T06:48:31;100246.59;;;18.78;61.73
3544;BME280;1786;52.870;9.578;2023-01-05T06:50:58;100256.22;;;18.97;61.16
3544;BME280;1786;52.870;9.578;2023-01-05T06:53:25;100245.53;;;18.27;62.62
3544;BME280;1786;52.870;9.578;2023-01-05T06:55:52;100265.09;;;18.45;62.45
3544;BME280;1786;52.870;9.578;2023-01-05T06:58:18;100285.50;;;18.28;62.41
3544;BME280;1786;52.870;9.578;2023-01-05T07:00:45;100277.63;;;18.97;61.06
3544;BME280;1786;52.870;9.578;2023-01-05T07:03:12;100286.13;;;18.92;60.94
3544;BME280;1786;52.870;9.578;2023-01-05T07:05:40;100290.47;;;18.85;61.11
3544;BME280;1786;52.870;9.578;2023-01-05T07:08:07;100295.59;;;19.05;60.86
3544;BME280;1786;52.870;9.578;2023-01-05T07:10:33;100292.97;;;18.87;61.00
3544;BME280;1786;52.870;9.578;2023-01-05T07:13:00;100299.66;;;18.65;62.15
3544;BME280;1786;52.870;9.578;2023-01-05T07:15:27;100299.47;;;19.10;60.81
3544;BME280;1786;52.870;9.578;2023-01-05T07:17:54;100316.47;;;18.75;61.75
3544;BME280;1786;52.870;9.578;2023-01-05T07:20:20;100309.59;;;18.54;62.80
3544;BME280;1786;52.870;9.578;2023-01-05T07:22:47;100316.38;;;18.85;61.68
3544;BME280;1786;52.870;9.578;2023-01-05T07:25:13;100326.13;;;19.20;61.08
3544;BME280;1786;52.870;9.578;2023-01-05T07:27:40;100321.75;;;19.11;60.24
3544;BME280;1786;52.870;9.578;2023-01-05T07:30:07;100330.28;;;19.49;60.08
3544;BME280;1786;52.870;9.578;2023-01-05T07:32:34;100344.03;;;19.54;59.46
3544;BME280;1786;52.870;9.578;2023-01-05T07:35:01;100331.97;;;19.15;60.56
3544;BME280;1786;52.870;9.578;2023-01-05T07:37:27;100352.09;;;18.93;60.83
3544;BME280;1786;52.870;9.578;2023-01-05T07:39:54;100354.31;;;18.62;61.61
3544;BME280;1786;52.870;9.578;2023-01-05T07:42:21;100354.19;;;18.46;62.06
3544;BME280;1786;52.870;9.578;2023-01-05T07:44:49;100365.13;;;18.88;61.41
3544;BME280;1786;52.870;9.578;2023-01-05T07:47:16;100364.50;;;18.58;61.83
3544;BME280;1786;52.870;9.578;2023-01-05T07:49:42;100374.97;;;18.52;62.03
3544;BME280;1786;52.870;9.578;2023-01-05T07:52:09;100378.81;;;18.67;62.16
3544;BME280;1786;52.870;9.578;2023-01-05T07:54:35;100382.09;;;18.79;61.45
3544;BME280;1786;52.870;9.578;2023-01-05T07:57:02;100384.53;;;19.16;60.33
3544;BME280;1786;52.870;9.578;2023-01-05T07:59:29;100388.00;;;19.35;60.14
3544;BME280;1786;52.870;9.578;2023-01-05T08:01:56;100385.88;;;18.94;60.73
3544;BME280;1786;52.870;9.578;2023-01-05T08:04:22;100383.97;;;19.31;59.69
3544;BME280;1786;52.870;9.578;2023-01-05T08:06:49;100389.84;;;19.08;60.26
3544;BME280;1786;52.870;9.578;2023-01-05T08:09:17;100386.34;;;19.42;59.54
3544;BME280;1786;52.870;9.578;2023-01-05T08:12:03;100402.88;;;19.03;60.28
3544;BME280;1786;52.870;9.578;2023-01-05T08:14:29;100394.59;;;19.22;59.91
3544;BME280;1786;52.870;9.578;2023-01-05T08:16:56;100404.84;;;19.27;59.51
3544;BME280;1786;52.870;9.578;2023-01-05T08:19:23;100404.59;;;19.38;59.07
3544;BME280;1786;52.870;9.578;2023-01-05T08:21:50;100413.69;;;19.45;58.94
3544;BME280;1786;52.870;9.578;2023-01-05T08:24:16;100417.69;;;19.41;58.32
3544;BME280;1786;52.870;9.578;2023-01-05T08:26:43;100425.94;;;19.48;58.36
3544;BME280;1786;52.870;9.578;2023-01-05T08:29:10;100426.09;;;19.46;58.02
3544;BME280;1786;52.870;9.578;2023-01-05T08:31:38;100432.81;;;19.77;57.53
3544;BME280;1786;52.870;9.578;2023-01-05T08:34:05;100431.31;;;19.82;56.78
3544;BME280;1786;52.870;9.578;2023-01-05T08:36:32;100439.84;;;19.52;57.37
3544;BME280;1786;52.870;9.578;2023-01-05T08:38:59;100437.69;;;19.81;57.20
3544;BME280;1786;52.870;9.578;2023-01-05T08:41:29;100455.91;;;20.12;56.41
3544;BME280;1786;52.870;9.578;2023-01-05T08:43:59;100454.38;;;20.09;56.48
3544;BME280;1786;52.870;9.578;2023-01-05T08:46:28;100465.38;;;20.41;55.78
3544;BME280;1786;52.870;9.578;2023-01-05T08:48:57;100475.06;;;20.84;55.11
3544;BME280;1786;52.870;9.578;2023-01-05T08:51:24;100475.25;;;20.99;54.70
3544;BME280;1786;52.870;9.578;2023-01-05T08:53:52;100491.16;;;21.01;54.25
3544;BME280;1786;52.870;9.578;2023-01-05T08:56:19;100495.38;;;21.28;53.88
3544;BME280;1786;52.870;9.578;2023-01-05T08:58:45;100500.91;;;21.26;53.19
3544;BME280;1786;52.870;9.578;2023-01-05T09:01:14;100507.81;;;21.45;52.92
3544;BME280;1786;52.870;9.578;2023-01-05T09:03:41;100505.94;;;21.21;53.69
3544;BME280;1786;52.870;9.578;2023-01-05T09:06:10;100507.47;;;21.32;53.25
3544;BME280;1786;52.870;9.578;2023-01-05T09:08:38;100520.56;;;21.35;52.87
3544;BME280;1786;52.870;9.578;2023-01-05T09:11:20;100523.44;;;21.50;52.75
3544;BME280;1786;52.870;9.578;2023-01-05T09:13:49;100521.59;;;21.09;53.84
3544;BME280;1786;52.870;9.578;2023-01-05T09:16:18;100529.94;;;21.72;53.87
3544;BME280;1786;52.870;9.578;2023-01-05T09:19:05;100543.72;;;22.95;51.32
3544;BME280;1786;52.870;9.578;2023-01-05T09:21:32;100539.00;;;22.74;49.55
3544;BME280;1786;52.870;9.578;2023-01-05T09:23:59;100559.31;;;23.54;48.45
3544;BME280;1786;52.870;9.578;2023-01-05T09:26:26;100566.09;;;23.88;47.75
3544;BME280;1786;52.870;9.578;2023-01-05T09:28:54;100564.47;;;23.41;47.21
3544;BME280;1786;52.870;9.578;2023-01-05T09:31:22;100564.91;;;22.75;48.41
3544;BME280;1786;52.870;9.578;2023-01-05T09:33:49;100574.03;;;22.35;48.59
3544;BME280;1786;52.870;9.578;2023-01-05T09:36:17;100570.19;;;22.29;48.75
3544;BME280;1786;52.870;9.578;2023-01-05T09:38:51;100575.34;;;21.50;50.20
3544;BME280;1786;52.870;9.578;2023-01-05T09:43:49;100582.16;;;23.20;47.78
3544;BME280;1786;52.870;9.578;2023-01-05T09:46:21;100593.38;;;23.93;46.19
3544;BME280;1786;52.870;9.578;2023-01-05T09:48:53;100592.00;;;24.27;45.58
3544;BME280;1786;52.870;9.578;2023-01-05T09:51:21;100595.28;;;25.10;44.38
3544;BME280;1786;52.870;9.578;2023-01-05T09:53:47;100612.97;;;25.92;43.58
3544;BME280;1786;52.870;9.578;2023-01-05T09:56:32;100620.94;;;26.34;42.35
3544;BME280;1786;52.870;9.578;2023-01-05T09:59:36;100617.41;;;26.34;42.39
3544;BME280;1786;52.870;9.578;2023-01-05T10:02:12;100619.38;;;26.95;41.45
3544;BME280;1786;52.870;9.578;2023-01-05T10:04:42;100620.75;;;25.30;42.22
3544;BME280;1786;52.870;9.578;2023-01-05T10:07:18;100619.91;;;26.36;42.16
3544;BME280;1786;52.870;9.578;2023-01-05T10:09:47;100618.25;;;25.57;42.96
3544;BME280;1786;52.870;9.578;2023-01-05T10:12:20;100620.09;;;25.13;43.64
3544;BME280;1786;52.870;9.578;2023-01-05T10:15:09;100624.59;;;24.70;43.07
3544;BME280;1786;52.870;9.578;2023-01-05T10:17:38;100622.94;;;25.05;43.21
3544;BME280;1786;52.870;9.578;2023-01-05T10:20:20;100612.31;;;25.03;42.91
3544;BME280;1786;52.870;9.578;2023-01-05T10:23:03;100613.88;;;25.13;43.59
3544;BME280;1786;52.870;9.578;2023-01-05T10:26:20;100625.72;;;24.60;43.49
3544;BME280;1786;52.870;9.578;2023-01-05T10:28:35;100625.19;;;24.50;43.90
3544;BME280;1786;52.870;9.578;2023-01-05T10:31:43;100620.41;;;25.18;43.41
3544;BME280;1786;52.870;9.578;2023-01-05T10:34:41;100622.06;;;24.68;43.59
3544;BME280;1786;52.870;9.578;2023-01-05T10:40:14;100634.50;;;23.95;45.01
3544;BME280;1786;52.870;9.578;2023-01-05T10:45:39;100646.22;;;24.55;43.99
3544;BME280;1786;52.870;9.578;2023-01-05T10:48:29;100641.75;;;24.62;43.64
3544;BME280;1786;52.870;9.578;2023-01-05T10:50:59;100646.75;;;24.21;43.34
3544;BME280;1786;52.870;9.578;2023-01-05T10:53:27;100643.63;;;23.71;44.15
3544;BME280;1786;52.870;9.578;2023-01-05T10:58:31;100639.88;;;22.72;45.18
3544;BME280;1786;52.870;9.578;2023-01-05T11:03:48;100641.75;;;22.63;45.96
3544;BME280;1786;52.870;9.578;2023-01-05T11:06:36;100637.22;;;22.63;46.33
3544;BME280;1786;52.870;9.578;2023-01-05T11:09:16;100650.59;;;22.80;46.32
3544;BME280;1786;52.870;9.578;2023-01-05T11:12:20;100658.31;;;22.91;46.03
3544;BME280;1786;52.870;9.578;2023-01-05T11:14:53;100659.44;;;22.57;46.09
3544;BME280;1786;52.870;9.578;2023-01-05T11:17:26;100654.63;;;22.84;45.85
3544;BME280;1786;52.870;9.578;2023-01-05T11:19:55;100653.34;;;23.11;45.22
3544;BME280;1786;52.870;9.578;2023-01-05T11:22:33;100662.81;;;22.90;45.68
3544;BME280;1786;52.870;9.578;2023-01-05T11:25:28;100663.19;;;22.40;46.03
3544;BME280;1786;52.870;9.578;2023-01-05T11:28:15;100680.53;;;22.04;46.35
3544;BME280;1786;52.870;9.578;2023-01-05T11:31:02;100676.69;;;22.07;46.78
3544;BME280;1786;52.870;9.578;2023-01-05T11:33:34;100678.16;;;22.42;46.34
3544;BME280;1786;52.870;9.578;2023-01-05T11:36:03;100678.50;;;22.39;46.52
3544;BME280;1786;52.870;9.578;2023-01-05T11:38:30;100680.31;;;22.63;46.29
3544;BME280;1786;52.870;9.578;2023-01-05T11:40:58;100685.38;;;22.58;46.56
3544;BME280;1786;52.870;9.578;2023-01-05T11:43:28;100693.50;;;22.34;46.54
3544;BME280;1786;52.870;9.578;2023-01-05T11:45:59;100697.72;;;22.28;47.47
3544;BME280;1786;52.870;9.578;2023-01-05T11:48:30;100703.59;;;22.15;48.01
3544;BME280;1786;52.870;9.578;2023-01-05T11:50:57;100695.63;;;22.55;47.08
3544;BME280;1786;52.870;9.578;2023-01-05T11:53:35;100696.66;;;22.54;46.86
3544;BME280;1786;52.870;9.578;2023-01-05T11:58:45;100699.53;;;23.00;46.94
3544;BME280;1786;52.870;9.578;2023-01-05T12:01:36;100704.19;;;23.14;46.47
3544;BME280;1786;52.870;9.578;2023-01-05T12:04:44;100703.94;;;23.01;46.56
3544;BME280;1786;52.870;9.578;2023-01-05T12:07:32;100706.63;;;22.93;46.58
3544;BME280;1786;52.870;9.578;2023-01-05T12:15:41;100706.63;;;21.71;48.92
3544;BME280;1786;52.870;9.578;2023-01-05T12:18:38;100705.13;;;21.93;48.87
3544;BME280;1786;52.870;9.578;2023-01-05T12:21:22;100710.84;;;21.90;48.65
3544;BME280;1786;52.870;9.578;2023-01-05T12:27:11;100724.94;;;21.76;48.81
3544;BME280;1786;52.870;9.578;2023-01-05T12:36:59;100725.09;;;21.66;49.15
3544;BME280;1786;52.870;9.578;2023-01-05T12:45:18;100736.16;;;21.47;49.18
3544;BME280;1786;52.870;9.578;2023-01-05T12:48:05;100738.06;;;21.79;48.72
3544;BME280;1786;52.870;9.578;2023-01-05T12:50:47;100741.78;;;22.02;48.38
3544;BME280;1786;52.870;9.578;2023-01-05T12:53:38;100746.47;;;21.84;48.01
3544;BME280;1786;52.870;9.578;2023-01-05T12:56:20;100738.75;;;21.22;49.29
3544;BME280;1786;52.870;9.578;2023-01-05T12:59:02;100753.31;;;21.11;48.98
3544;BME280;1786;52.870;9.578;2023-01-05T13:01:35;100746.75;;;21.40;49.22
3544;BME280;1786;52.870;9.578;2023-01-05T13:04:19;100757.16;;;21.43;49.03
3544;BME280;1786;52.870;9.578;2023-01-05T13:06:54;100749.25;;;20.99;49.19
3544;BME280;1786;52.870;9.578;2023-01-05T13:09:27;100750.03;;;20.57;50.28
3544;BME280;1786;52.870;9.578;2023-01-05T13:12:00;100759.72;;;21.18;49.02
3544;BME280;1786;52.870;9.578;2023-01-05T13:14:34;100764.94;;;20.86;49.38
3544;BME280;1786;52.870;9.578;2023-01-05T13:17:11;100757.97;;;21.01;48.78
3544;BME280;1786;52.870;9.578;2023-01-05T13:19:48;100770.34;;;20.94;49.12
3544;BME280;1786;52.870;9.578;2023-01-05T13:22:22;100774.06;;;21.35;48.31
3544;BME280;1786;52.870;9.578;2023-01-05T13:24:50;100778.91;;;21.66;47.79
3544;BME280;1786;52.870;9.578;2023-01-05T13:27:17;100785.38;;;21.39;48.03
3544;BME280;1786;52.870;9.578;2023-01-05T13:29:47;100777.69;;;21.52;48.32
3544;BME280;1786;52.870;9.578;2023-01-05T13:44:15;100809.63;;;22.31;47.53
3544;BME280;1786;52.870;9.578;2023-01-05T13:47:04;100806.00;;;21.81;48.09
3544;BME280;1786;52.870;9.578;2023-01-05T13:52:49;100816.16;;;22.69;46.83
3544;BME280;1786;52.870;9.578;2023-01-05T13:55:18;100815.16;;;22.37;46.94
3544;BME280;1786;52.870;9.578;2023-01-05T13:57:52;100835.78;;;22.04;47.01
3544;BME280;1786;52.870;9.578;2023-01-05T14:00:39;100821.56;;;22.28;47.37
3544;BME280;1786;52.870;9.578;2023-01-05T14:05:40;100817.59;;;21.81;47.21
3544;BME280;1786;52.870;9.578;2023-01-05T14:08:20;100819.00;;;21.51;47.74
3544;BME280;1786;52.870;9.578;2023-01-05T14:11:12;100834.72;;;21.30;48.59
3544;BME280;1786;52.870;9.578;2023-01-05T14:13:53;100833.06;;;21.37;48.42
3544;BME280;1786;52.870;9.578;2023-01-05T14:24:33;100850.66;;;22.24;47.26
3544;BME280;1786;52.870;9.578;2023-01-05T14:27:16;100856.88;;;22.50;46.44
3544;BME280;1786;52.870;9.578;2023-01-05T14:32:11;100869.88;;;21.87;46.99
3544;BME280;1786;52.870;9.578;2023-01-05T14:34:45;100871.53;;;21.72;47.07
3544;BME280;1786;52.870;9.578;2023-01-05T14:37:31;100881.63;;;21.70;47.66
3544;BME280;1786;52.870;9.578;2023-01-05T14:40:01;100879.41;;;21.65;47.18
3544;BME280;1786;52.870;9.578;2023-01-05T14:42:38;100879.78;;;21.78;46.94
3544;BME280;1786;52.870;9.578;2023-01-05T14:45:20;100871.59;;;21.88;47.03
3544;BME280;1786;52.870;9.578;2023-01-05T14:47:51;100877.56;;;21.66;47.39
3544;BME280;1786;52.870;9.578;2023-01-05T14:50:32;100875.22;;;21.36;47.80
3544;BME280;1786;52.870;9.578;2023-01-05T14:53:01;100887.41;;;21.23;47.87
3544;BME280;1786;52.870;9.578;2023-01-05T14:55:32;100886.28;;;21.33;47.96
3544;BME280;1786;52.870;9.578;2023-01-05T15:00:49;100893.97;;;21.54;46.96
3544;BME280;1786;52.870;9.578;2023-01-05T15:03:32;100898.88;;;21.59;47.06
3544;BME280;1786;52.870;9.578;2023-01-05T15:06:14;100901.78;;;21.66;46.69